sensor_id;sensor_type;location;lat;lon;timestamp;pressure;altitude;pressure_sealevel;temperature;humidity
42003;BME280;27693;50.506;30.832;2023-07-09T00:00:17;99607.77;;;16.09;85.26
42003;BME280;27693;50.506;30.832;2023-07-09T00:01:22;99611.87;;;16.01;85.99
42003;BME280;27693;50.506;30.832;2023-07-09T00:02:26;99608.83;;;15.94;86.80
42003;BME280;27693;50.506;30.832;2023-07-09T00:03:29;99606.64;;;15.88;87.48
42003;BME280;27693;50.506;30.832;2023-07-09T00:04:32;99610.20;;;15.87;88.05
42003;BME280;27693;50.506;30.832;2023-07-09T00:05:36;99601.39;;;15.88;88.43
42003;BME280;27693;50.506;30.832;2023-07-09T00:06:39;99604.95;;;15.87;88.68
42003;BME280;27693;50.506;30.832;2023-07-09T00:07:43;99599.52;;;15.90;88.87
42003;BME280;27693;50.506;30.832;2023-07-09T00:08:48;99602.13;;;15.90;89.30
42003;BME280;27693;50.506;30.832;2023-07-09T00:09:51;99603.81;;;15.91;89.53
42003;BME280;27693;50.506;30.832;2023-07-09T00:10:55;99597.63;;;15.92;89.82
42003;BME280;27693;50.506;30.832;2023-07-09T00:11:58;99602.13;;;15.90;90.17
42003;BME280;27693;50.506;30.832;2023-07-09T00:13:01;99611.69;;;15.91;90.48
42003;BME280;27693;50.506;30.832;2023-07-09T00:14:05;99601.62;;;15.85;91.08
42003;BME280;27693;50.506;30.832;2023-07-09T00:15:11;99590.91;;;15.88;91.43
42003;BME280;27693;50.506;30.832;2023-07-09T00:16:24;99597.39;;;15.95;91.41
42003;BME280;27693;50.506;30.832;2023-07-09T00:17:29;99592.15;;;15.95;91.26
42003;BME280;27693;50.506;30.832;2023-07-09T00:18:33;99592.03;;;15.96;91.50
42003;BME280;27693;50.506;30.832;2023-07-09T00:19:38;99592.15;;;15.95;92.04
42003;BME280;27693;50.506;30.832;2023-07-09T00:20:41;99592.66;;;16.00;92.21
42003;BME280;27693;50.506;30.832;2023-07-09T00:21:47;99597.20;;;15.98;92.59
42003;BME280;27693;50.506;30.832;2023-07-09T00:22:51;99592.38;;;15.92;93.34
42003;BME280;27693;50.506;30.832;2023-07-09T00:23:56;99599.28;;;15.93;93.86
42003;BME280;27693;50.506;30.832;2023-07-09T00:24:59;99591.53;;;15.91;94.38
42003;BME280;27693;50.506;30.832;2023-07-09T00:26:02;99595.32;;;15.87;94.86
42003;BME280;27693;50.506;30.832;2023-07-09T00:27:08;99583.03;;;15.88;95.29
42003;BME280;27693;50.506;30.832;2023-07-09T00:28:15;99587.95;;;15.92;95.35
42003;BME280;27693;50.506;30.832;2023-07-09T00:29:20;99584.28;;;15.95;95.37
42003;BME280;27693;50.506;30.832;2023-07-09T00:30:23;99581.95;;;16.03;95.27
42003;BME280;27693;50.506;30.832;2023-07-09T00:31:26;99579.53;;;16.00;95.16
42003;BME280;27693;50.506;30.832;2023-07-09T00:32:29;99582.39;;;15.97;95.43
42003;BME280;27693;50.506;30.832;2023-07-09T00:33:31;99577.03;;;15.99;95.65
42003;BME280;27693;50.506;30.832;2023-07-09T00:34:33;99584.58;;;16.03;95.77
42003;BME280;27693;50.506;30.832;2023-07-09T00:35:36;99582.78;;;16.04;95.50
42003;BME280;27693;50.506;30.832;2023-07-09T00:36:40;99583.41;;;16.07;95.56
42003;BME280;27693;50.506;30.832;2023-07-09T00:37:45;99581.64;;;16.08;95.60
42003;BME280;27693;50.506;30.832;2023-07-09T00:38:48;99578.89;;;16.09;95.40
42003;BME280;27693;50.506;30.832;2023-07-09T00:39:52;99580.58;;;16.10;95.55
42003;BME280;27693;50.506;30.832;2023-07-09T00:41:04;99580.14;;;16.17;95.19
42003;BME280;27693;50.506;30.832;2023-07-09T00:42:18;99571.52;;;16.15;94.87
42003;BME280;27693;50.506;30.832;2023-07-09T00:43:22;99579.72;;;16.10;94.92
42003;BME280;27693;50.506;30.832;2023-07-09T00:44:32;99575.53;;;16.07;95.22
42003;BME280;27693;50.506;30.832;2023-07-09T00:45:35;99575.45;;;16.09;95.18
42003;BME280;27693;50.506;30.832;2023-07-09T00:49:07;99582.02;;;16.15;93.57
42003;BME280;27693;50.506;30.832;2023-07-09T00:50:21;99582.02;;;16.15;93.67
42003;BME280;27693;50.506;30.832;2023-07-09T00:51:21;99587.06;;;16.18;93.89
42003;BME280;27693;50.506;30.832;2023-07-09T00:53:32;99580.45;;;16.12;94.06
42003;BME280;27693;50.506;30.832;2023-07-09T00:54:37;99591.70;;;16.14;93.50
42003;BME280;27693;50.506;30.832;2023-07-09T00:55:42;99587.80;;;16.20;93.58
42003;BME280;27693;50.506;30.832;2023-07-09T00:56:50;99586.83;;;16.21;93.40
42003;BME280;27693;50.506;30.832;2023-07-09T00:57:58;99578.02;;;16.22;93.18
42003;BME280;27693;50.506;30.832;2023-07-09T00:59:01;99586.62;;;16.24;92.85
42003;BME280;27693;50.506;30.832;2023-07-09T01:00:09;99588.30;;;16.25;92.89
42003;BME280;27693;50.506;30.832;2023-07-09T01:01:19;99583.05;;;16.25;92.53
42003;BME280;27693;50.506;30.832;2023-07-09T01:02:22;99585.68;;;16.25;92.32
42003;BME280;27693;50.506;30.832;2023-07-09T01:03:35;99583.77;;;16.27;91.87
42003;BME280;27693;50.506;30.832;2023-07-09T01:04:40;99585.44;;;16.28;91.71
42003;BME280;27693;50.506;30.832;2023-07-09T01:05:43;99589.55;;;16.32;91.51
42003;BME280;27693;50.506;30.832;2023-07-09T01:06:48;99588.59;;;16.33;90.75
42003;BME280;27693;50.506;30.832;2023-07-09T01:07:52;99594.88;;;16.31;90.14
42003;BME280;27693;50.506;30.832;2023-07-09T01:08:55;99591.55;;;16.28;89.76
42003;BME280;27693;50.506;30.832;2023-07-09T01:09:58;99591.63;;;16.27;89.72
42003;BME280;27693;50.506;30.832;2023-07-09T01:11:01;99584.83;;;16.24;89.98
42003;BME280;27693;50.506;30.832;2023-07-09T01:12:07;99579.48;;;16.26;89.31
42003;BME280;27693;50.506;30.832;2023-07-09T01:13:11;99590.93;;;16.25;89.38
42003;BME280;27693;50.506;30.832;2023-07-09T01:14:17;99587.56;;;16.23;89.05
42003;BME280;27693;50.506;30.832;2023-07-09T01:15:21;99578.02;;;16.22;88.54
42003;BME280;27693;50.506;30.832;2023-07-09T01:16:26;99588.30;;;16.25;88.56
42003;BME280;27693;50.506;30.832;2023-07-09T01:17:29;99587.24;;;16.27;88.30
42003;BME280;27693;50.506;30.832;2023-07-09T01:18:32;99583.55;;;16.30;88.38
42003;BME280;27693;50.506;30.832;2023-07-09T01:19:40;99588.69;;;16.32;88.24
42003;BME280;27693;50.506;30.832;2023-07-09T01:20:46;99589.30;;;16.35;88.25
42003;BME280;27693;50.506;30.832;2023-07-09T01:21:49;99594.05;;;16.30;87.96
42003;BME280;27693;50.506;30.832;2023-07-09T01:22:52;99595.23;;;16.26;88.33
42003;BME280;27693;50.506;30.832;2023-07-09T01:25:51;99592.31;;;16.18;88.79
42003;BME280;27693;50.506;30.832;2023-07-09T01:26:48;99585.27;;;16.18;88.78
42003;BME280;27693;50.506;30.832;2023-07-09T01:27:52;99584.77;;;16.13;88.72
42003;BME280;27693;50.506;30.832;2023-07-09T01:28:56;99581.52;;;16.09;88.56
42003;BME280;27693;50.506;30.832;2023-07-09T01:30:05;99589.81;;;16.16;88.59
42003;BME280;27693;50.506;30.832;2023-07-09T01:31:08;99596.32;;;16.10;88.25
42003;BME280;27693;50.506;30.832;2023-07-09T01:32:13;99593.90;;;16.07;88.73
42003;BME280;27693;50.506;30.832;2023-07-09T01:33:16;99587.95;;;16.05;88.23
42003;BME280;27693;50.506;30.832;2023-07-09T01:34:19;99593.90;;;16.07;88.40
42003;BME280;27693;50.506;30.832;2023-07-09T01:35:24;99597.27;;;16.09;88.46
42003;BME280;27693;50.506;30.832;2023-07-09T01:36:28;99587.70;;;16.08;88.54
42003;BME280;27693;50.506;30.832;2023-07-09T01:37:34;99594.84;;;16.06;88.47
42003;BME280;27693;50.506;30.832;2023-07-09T01:38:37;99595.47;;;16.10;88.37
42003;BME280;27693;50.506;30.832;2023-07-09T01:39:40;99599.45;;;16.16;87.76
42003;BME280;27693;50.506;30.832;2023-07-09T01:40:42;99597.33;;;16.21;87.90
42003;BME280;27693;50.506;30.832;2023-07-09T01:41:45;99588.75;;;16.19;87.35
42003;BME280;27693;50.506;30.832;2023-07-09T01:42:51;99594.94;;;16.18;87.36
42003;BME280;27693;50.506;30.832;2023-07-09T01:43:53;99592.31;;;16.18;87.23
42003;BME280;27693;50.506;30.832;2023-07-09T01:44:56;99603.64;;;16.18;87.03
42003;BME280;27693;50.506;30.832;2023-07-09T01:45:59;99597.69;;;16.16;87.16
42003;BME280;27693;50.506;30.832;2023-07-09T01:47:02;99591.45;;;16.17;87.08
42003;BME280;27693;50.506;30.832;2023-07-09T01:48:07;99600.19;;;16.18;86.99
42003;BME280;27693;50.506;30.832;2023-07-09T01:49:11;99605.20;;;16.21;87.23
42003;BME280;27693;50.506;30.832;2023-07-09T01:50:14;99603.02;;;16.15;86.77
42003;BME280;27693;50.506;30.832;2023-07-09T01:51:18;99601.77;;;16.07;86.79
42003;BME280;27693;50.506;30.832;2023-07-09T01:52:21;99604.75;;;16.03;87.04
42003;BME280;27693;50.506;30.832;2023-07-09T01:53:26;99607.45;;;16.01;87.25
42003;BME280;27693;50.506;30.832;2023-07-09T01:54:31;99598.88;;;15.99;87.21
42003;BME280;27693;50.506;30.832;2023-07-09T01:55:36;99607.25;;;16.04;87.23
42003;BME280;27693;50.506;30.832;2023-07-09T01:56:40;99603.69;;;16.05;87.24
42003;BME280;27693;50.506;30.832;2023-07-09T01:57:43;99608.63;;;15.97;87.09
42003;BME280;27693;50.506;30.832;2023-07-09T01:58:45;99611.45;;;15.94;87.39
42003;BME280;27693;50.506;30.832;2023-07-09T01:59:55;99605.27;;;15.95;87.53
42003;BME280;27693;50.506;30.832;2023-07-09T02:00:58;99607.15;;;15.93;87.64
42003;BME280;27693;50.506;30.832;2023-07-09T02:02:01;99611.14;;;15.99;87.68
42003;BME280;27693;50.506;30.832;2023-07-09T02:03:04;99607.69;;;15.98;87.66
42003;BME280;27693;50.506;30.832;2023-07-09T02:04:07;99603.15;;;16.00;87.45
42003;BME280;27693;50.506;30.832;2023-07-09T02:05:11;99617.87;;;16.03;86.86
42003;BME280;27693;50.506;30.832;2023-07-09T02:06:16;99612.31;;;15.94;86.53
42003;BME280;27693;50.506;30.832;2023-07-09T02:07:22;99611.25;;;15.97;86.77
42003;BME280;27693;50.506;30.832;2023-07-09T02:08:25;99606.44;;;15.91;86.67
42003;BME280;27693;50.506;30.832;2023-07-09T02:09:27;99614.63;;;15.86;86.85
42003;BME280;27693;50.506;30.832;2023-07-09T02:10:31;99612.83;;;15.87;87.11
42003;BME280;27693;50.506;30.832;2023-07-09T02:11:34;99610.20;;;15.87;87.10
42003;BME280;27693;50.506;30.832;2023-07-09T02:12:37;99623.44;;;15.85;86.51
42003;BME280;27693;50.506;30.832;2023-07-09T02:13:39;99623.44;;;15.85;86.51
42003;BME280;27693;50.506;30.832;2023-07-09T02:14:44;99611.06;;;15.87;86.43
42003;BME280;27693;50.506;30.832;2023-07-09T02:15:46;99607.27;;;15.91;86.27
42003;BME280;27693;50.506;30.832;2023-07-09T02:16:48;99616.94;;;15.91;86.27
42003;BME280;27693;50.506;30.832;2023-07-09T02:17:51;99619.33;;;15.94;86.09
42003;BME280;27693;50.506;30.832;2023-07-09T02:18:54;99620.27;;;15.93;85.91
42003;BME280;27693;50.506;30.832;2023-07-09T02:19:57;99622.89;;;15.93;85.76
42003;BME280;27693;50.506;30.832;2023-07-09T02:21:00;99621.75;;;15.97;85.70
42003;BME280;27693;50.506;30.832;2023-07-09T02:22:02;99623.63;;;15.95;85.55
42003;BME280;27693;50.506;30.832;2023-07-09T02:23:07;99623.00;;;15.91;85.43
42003;BME280;27693;50.506;30.832;2023-07-09T02:24:09;99623.86;;;15.92;85.53
42003;BME280;27693;50.506;30.832;2023-07-09T02:25:13;99613.37;;;15.92;85.34
42003;BME280;27693;50.506;30.832;2023-07-09T02:26:15;99625.00;;;15.88;85.01
42003;BME280;27693;50.506;30.832;2023-07-09T02:27:19;99621.55;;;15.87;85.07
42003;BME280;27693;50.506;30.832;2023-07-09T02:28:22;99622.27;;;15.89;85.39
42003;BME280;27693;50.506;30.832;2023-07-09T02:29:25;99615.25;;;15.90;85.31
42003;BME280;27693;50.506;30.832;2023-07-09T02:30:28;99621.55;;;15.87;84.94
42003;BME280;27693;50.506;30.832;2023-07-09T02:31:32;99620.81;;;15.85;84.91
42003;BME280;27693;50.506;30.832;2023-07-09T02:32:35;99627.42;;;15.91;84.45
42003;BME280;27693;50.506;30.832;2023-07-09T02:33:39;99627.42;;;15.91;84.45
42003;BME280;27693;50.506;30.832;2023-07-09T02:34:42;99627.42;;;15.91;84.50
42003;BME280;27693;50.506;30.832;2023-07-09T02:35:44;99627.42;;;15.91;84.89
42003;BME280;27693;50.506;30.832;2023-07-09T02:36:47;99624.30;;;15.86;84.72
42003;BME280;27693;50.506;30.832;2023-07-09T02:37:49;99627.42;;;15.91;85.08
42003;BME280;27693;50.506;30.832;2023-07-09T02:38:52;99629.11;;;15.92;84.68
42003;BME280;27693;50.506;30.832;2023-07-09T02:39:55;99632.25;;;15.97;84.78
42003;BME280;27693;50.506;30.832;2023-07-09T02:40:57;99627.20;;;15.94;84.56
42003;BME280;27693;50.506;30.832;2023-07-09T02:42:02;99632.88;;;15.88;84.06
42003;BME280;27693;50.506;30.832;2023-07-09T02:43:04;99628.25;;;15.91;84.12
42003;BME280;27693;50.506;30.832;2023-07-09T02:44:08;99635.19;;;15.92;83.18
42003;BME280;27693;50.506;30.832;2023-07-09T02:45:12;99632.88;;;16.01;83.24
42003;BME280;27693;50.506;30.832;2023-07-09T02:46:14;99627.94;;;15.96;83.15
42003;BME280;27693;50.506;30.832;2023-07-09T02:47:18;99634.13;;;15.95;83.61
42003;BME280;27693;50.506;30.832;2023-07-09T02:48:21;99634.13;;;15.95;83.74
42003;BME280;27693;50.506;30.832;2023-07-09T02:49:24;99633.61;;;15.90;83.21
42003;BME280;27693;50.506;30.832;2023-07-09T02:50:26;99629.11;;;15.92;83.55
42003;BME280;27693;50.506;30.832;2023-07-09T02:51:28;99628.45;;;16.01;83.65
42003;BME280;27693;50.506;30.832;2023-07-09T02:52:32;99636.55;;;15.98;83.17
42003;BME280;27693;50.506;30.832;2023-07-09T02:53:34;99627.20;;;15.94;83.34
42003;BME280;27693;50.506;30.832;2023-07-09T02:54:37;99628.88;;;15.95;83.62
42003;BME280;27693;50.506;30.832;2023-07-09T02:55:40;99624.05;;;16.02;83.86
42003;BME280;27693;50.506;30.832;2023-07-09T02:56:42;99620.69;;;16.00;83.01
42003;BME280;27693;50.506;30.832;2023-07-09T02:57:45;99627.73;;;15.99;83.29
42003;BME280;27693;50.506;30.832;2023-07-09T02:58:48;99618.38;;;15.95;83.36
42003;BME280;27693;50.506;30.832;2023-07-09T02:59:51;99616.62;;;15.95;83.28
42003;BME280;27693;50.506;30.832;2023-07-09T03:00:54;99621.63;;;15.99;83.12
42003;BME280;27693;50.506;30.832;2023-07-09T03:01:56;99623.00;;;16.04;82.99
42003;BME280;27693;50.506;30.832;2023-07-09T03:02:59;99618.45;;;16.06;83.60
42003;BME280;27693;50.506;30.832;2023-07-09T03:04:03;99619.31;;;16.07;83.07
42003;BME280;27693;50.506;30.832;2023-07-09T03:05:07;99619.63;;;16.02;82.88
42003;BME280;27693;50.506;30.832;2023-07-09T03:06:12;99622.26;;;16.02;83.38
42003;BME280;27693;50.506;30.832;2023-07-09T03:07:14;99614.62;;;15.99;83.16
42003;BME280;27693;50.506;30.832;2023-07-09T03:08:17;99611.99;;;15.99;83.06
42003;BME280;27693;50.506;30.832;2023-07-09T03:09:20;99607.89;;;15.95;83.27
42003;BME280;27693;50.506;30.832;2023-07-09T03:10:23;99617.45;;;15.96;83.47
42003;BME280;27693;50.506;30.832;2023-07-09T03:11:27;99616.62;;;15.95;83.41
42003;BME280;27693;50.506;30.832;2023-07-09T03:12:30;99620.27;;;15.93;83.54
42003;BME280;27693;50.506;30.832;2023-07-09T03:13:32;99613.57;;;15.89;83.95
42003;BME280;27693;50.506;30.832;2023-07-09T03:14:35;99612.83;;;15.87;83.81
42003;BME280;27693;50.506;30.832;2023-07-09T03:15:38;99617.88;;;15.90;84.27
42003;BME280;27693;50.506;30.832;2023-07-09T03:16:40;99606.64;;;15.88;84.18
42003;BME280;27693;50.506;30.832;2023-07-09T03:17:47;99610.00;;;15.90;83.97
42003;BME280;27693;50.506;30.832;2023-07-09T03:18:49;99620.70;;;15.87;83.93
42003;BME280;27693;50.506;30.832;2023-07-09T03:19:52;99616.31;;;15.87;83.98
42003;BME280;27693;50.506;30.832;2023-07-09T03:20:55;99615.69;;;15.84;84.06
42003;BME280;27693;50.506;30.832;2023-07-09T03:21:58;99619.25;;;15.83;83.84
42003;BME280;27693;50.506;30.832;2023-07-09T03:23:00;99623.01;;;15.78;83.77
42003;BME280;27693;50.506;30.832;2023-07-09T03:24:03;99626.91;;;15.86;83.99
42003;BME280;27693;50.506;30.832;2023-07-09T03:25:06;99629.54;;;15.86;83.84
42003;BME280;27693;50.506;30.832;2023-07-09T03:26:09;99621.23;;;15.92;83.95
42003;BME280;27693;50.506;30.832;2023-07-09T03:27:11;99619.44;;;15.92;83.28
42003;BME280;27693;50.506;30.832;2023-07-09T03:28:15;99622.38;;;15.88;82.92
42003;BME280;27693;50.506;30.832;2023-07-09T03:29:17;99616.94;;;15.91;82.75
42003;BME280;27693;50.506;30.832;2023-07-09T03:30:20;99619.33;;;15.94;82.25
42003;BME280;27693;50.506;30.832;2023-07-09T03:31:22;99612.40;;;15.93;82.13
42003;BME280;27693;50.506;30.832;2023-07-09T03:32:25;99623.43;;;15.98;81.85
42003;BME280;27693;50.506;30.832;2023-07-09T03:33:27;99622.69;;;15.96;81.38
42003;BME280;27693;50.506;30.832;2023-07-09T03:34:30;99620.06;;;15.96;81.47
42003;BME280;27693;50.506;30.832;2023-07-09T03:35:32;99622.48;;;15.99;81.25
42003;BME280;27693;50.506;30.832;2023-07-09T03:36:37;99621.63;;;15.99;80.85
42003;BME280;27693;50.506;30.832;2023-07-09T03:37:39;99614.08;;;15.94;80.43
42003;BME280;27693;50.506;30.832;2023-07-09T03:38:42;99616.19;;;16.02;80.64
42003;BME280;27693;50.506;30.832;2023-07-09T03:39:47;99616.89;;;16.04;80.62
42003;BME280;27693;50.506;30.832;2023-07-09T03:40:51;99618.89;;;16.00;80.15
42003;BME280;27693;50.506;30.832;2023-07-09T03:41:53;99620.69;;;16.00;79.86
42003;BME280;27693;50.506;30.832;2023-07-09T03:42:56;99621.52;;;16.00;79.86
42003;BME280;27693;50.506;30.832;2023-07-09T03:43:58;99624.05;;;16.02;79.42
42003;BME280;27693;50.506;30.832;2023-07-09T03:45:00;99615.33;;;16.01;79.46
42003;BME280;27693;50.506;30.832;2023-07-09T03:46:03;99618.58;;;16.05;79.52
42003;BME280;27693;50.506;30.832;2023-07-09T03:47:06;99618.26;;;16.09;79.86
42003;BME280;27693;50.506;30.832;2023-07-09T03:48:09;99618.77;;;16.15;79.69
42003;BME280;27693;50.506;30.832;2023-07-09T03:49:11;99620.68;;;16.12;78.98
42003;BME280;27693;50.506;30.832;2023-07-09T03:50:14;99620.24;;;16.19;79.25
42003;BME280;27693;50.506;30.832;2023-07-09T03:51:17;99620.86;;;16.22;79.08
42003;BME280;27693;50.506;30.832;2023-07-09T03:52:19;99623.13;;;16.27;78.02
42003;BME280;27693;50.506;30.832;2023-07-09T03:53:22;99626.73;;;16.26;78.04
42003;BME280;27693;50.506;30.832;2023-07-09T03:54:25;99623.99;;;16.27;77.53
42003;BME280;27693;50.506;30.832;2023-07-09T03:55:29;99622.93;;;16.30;77.24
42003;BME280;27693;50.506;30.832;2023-07-09T03:56:31;99624.61;;;16.31;77.31
42003;BME280;27693;50.506;30.832;2023-07-09T03:57:34;99624.38;;;16.34;77.20
42003;BME280;27693;50.506;30.832;2023-07-09T03:58:38;99627.53;;;16.39;76.50
42003;BME280;27693;50.506;30.832;2023-07-09T03:59:40;99619.86;;;16.36;76.44
42003;BME280;27693;50.506;30.832;2023-07-09T04:00:42;99621.48;;;16.26;76.03
42003;BME280;27693;50.506;30.832;2023-07-09T04:01:45;99617.68;;;16.30;77.13
42003;BME280;27693;50.506;30.832;2023-07-09T04:02:48;99622.11;;;16.29;76.64
42003;BME280;27693;50.506;30.832;2023-07-09T04:03:51;99621.98;;;16.31;76.61
42003;BME280;27693;50.506;30.832;2023-07-09T04:04:53;99620.81;;;16.35;76.50
42003;BME280;27693;50.506;30.832;2023-07-09T04:05:56;99620.81;;;16.35;76.50
42003;BME280;27693;50.506;30.832;2023-07-09T04:06:58;99617.48;;;16.33;76.50
42003;BME280;27693;50.506;30.832;2023-07-09T04:08:00;99623.88;;;16.29;76.71
42003;BME280;27693;50.506;30.832;2023-07-09T04:09:03;99627.17;;;16.20;76.93
42003;BME280;27693;50.506;30.832;2023-07-09T04:10:07;99621.48;;;16.26;77.42
42003;BME280;27693;50.506;30.832;2023-07-09T04:11:09;99618.13;;;16.24;77.40
42003;BME280;27693;50.506;30.832;2023-07-09T04:12:12;99625.26;;;16.22;77.08
42003;BME280;27693;50.506;30.832;2023-07-09T04:13:14;99636.19;;;16.16;77.20
42003;BME280;27693;50.506;30.832;2023-07-09T04:14:16;99618.56;;;16.18;77.26
42003;BME280;27693;50.506;30.832;2023-07-09T04:15:19;99626.20;;;16.21;77.46
42003;BME280;27693;50.506;30.832;2023-07-09T04:16:21;99627.44;;;16.28;77.62
42003;BME280;27693;50.506;30.832;2023-07-09T04:17:24;99630.60;;;16.33;77.66
42003;BME280;27693;50.506;30.832;2023-07-09T04:18:27;99635.30;;;16.41;78.10
42003;BME280;27693;50.506;30.832;2023-07-09T04:19:31;99629.63;;;16.34;76.75
42003;BME280;27693;50.506;30.832;2023-07-09T04:20:33;99634.23;;;16.43;78.24
42003;BME280;27693;50.506;30.832;2023-07-09T04:21:37;99640.34;;;16.44;76.33
42003;BME280;27693;50.506;30.832;2023-07-09T04:22:39;99639.04;;;16.50;76.80
42003;BME280;27693;50.506;30.832;2023-07-09T04:23:44;99639.28;;;16.47;75.84
42003;BME280;27693;50.506;30.832;2023-07-09T04:24:47;99635.67;;;16.48;75.66
42003;BME280;27693;50.506;30.832;2023-07-09T04:25:49;99631.60;;;16.43;75.69
42003;BME280;27693;50.506;30.832;2023-07-09T04:26:53;99638.83;;;16.53;76.27
42003;BME280;27693;50.506;30.832;2023-07-09T04:27:57;99631.90;;;16.52;75.15
42003;BME280;27693;50.506;30.832;2023-07-09T04:29:00;99639.89;;;16.50;74.64
42003;BME280;27693;50.506;30.832;2023-07-09T04:30:03;99633.13;;;16.59;75.23
42003;BME280;27693;50.506;30.832;2023-07-09T04:31:07;99635.52;;;16.62;75.96
42003;BME280;27693;50.506;30.832;2023-07-09T04:32:14;99634.36;;;16.66;75.36
42003;BME280;27693;50.506;30.832;2023-07-09T04:33:18;99622.39;;;16.62;74.35
42003;BME280;27693;50.506;30.832;2023-07-09T04:34:22;99631.00;;;16.64;74.56
42003;BME280;27693;50.506;30.832;2023-07-09T04:35:25;99625.75;;;16.64;74.00
42003;BME280;27693;50.506;30.832;2023-07-09T04:36:27;99626.48;;;16.66;74.33
42003;BME280;27693;50.506;30.832;2023-07-09T04:37:29;99648.56;;;16.64;74.73
42003;BME280;27693;50.506;30.832;2023-07-09T04:38:34;99635.02;;;16.57;74.68
42003;BME280;27693;50.506;30.832;2023-07-09T04:39:36;99638.15;;;16.62;74.70
42003;BME280;27693;50.506;30.832;2023-07-09T04:40:39;99642.45;;;16.63;74.69
42003;BME280;27693;50.506;30.832;2023-07-09T04:41:41;99641.30;;;16.67;74.69
42003;BME280;27693;50.506;30.832;2023-07-09T04:42:43;99639.38;;;16.69;74.12
42003;BME280;27693;50.506;30.832;2023-07-09T04:43:46;99642.74;;;16.71;74.06
42003;BME280;27693;50.506;30.832;2023-07-09T04:44:50;99641.06;;;16.70;74.34
42003;BME280;27693;50.506;30.832;2023-07-09T04:45:52;99640.85;;;16.73;73.82
42003;BME280;27693;50.506;30.832;2023-07-09T04:46:55;99628.33;;;16.77;73.93
42003;BME280;27693;50.506;30.832;2023-07-09T04:47:57;99639.55;;;16.79;73.84
42003;BME280;27693;50.506;30.832;2023-07-09T04:49:00;99633.84;;;16.85;74.01
42003;BME280;27693;50.506;30.832;2023-07-09T04:50:04;99637.20;;;16.87;74.20
42003;BME280;27693;50.506;30.832;2023-07-09T04:51:09;99638.05;;;16.88;73.90
42003;BME280;27693;50.506;30.832;2023-07-09T04:52:12;99628.49;;;16.87;73.30
42003;BME280;27693;50.506;30.832;2023-07-09T04:53:17;99637.32;;;16.86;73.42
42003;BME280;27693;50.506;30.832;2023-07-09T04:54:23;99631.52;;;16.93;73.53
42003;BME280;27693;50.506;30.832;2023-07-09T04:55:26;99643.59;;;16.96;73.62
42003;BME280;27693;50.506;30.832;2023-07-09T04:56:30;99632.38;;;16.94;73.72
42003;BME280;27693;50.506;30.832;2023-07-09T04:57:33;99643.16;;;17.02;73.73
42003;BME280;27693;50.506;30.832;2023-07-09T04:58:36;99644.81;;;17.03;73.04
42003;BME280;27693;50.506;30.832;2023-07-09T04:59:38;99642.19;;;17.03;73.87
42003;BME280;27693;50.506;30.832;2023-07-09T05:00:42;99638.24;;;16.98;73.33
42003;BME280;27693;50.506;30.832;2023-07-09T05:01:46;99643.16;;;17.02;73.53
42003;BME280;27693;50.506;30.832;2023-07-09T05:02:48;99632.53;;;17.04;73.26
42003;BME280;27693;50.506;30.832;2023-07-09T05:03:51;99624.06;;;17.12;73.05
42003;BME280;27693;50.506;30.832;2023-07-09T05:04:54;99624.06;;;17.12;73.05
42003;BME280;27693;50.506;30.832;2023-07-09T05:05:56;99627.30;;;17.15;72.86
42003;BME280;27693;50.506;30.832;2023-07-09T05:07:00;99634.11;;;17.18;72.23
42003;BME280;27693;50.506;30.832;2023-07-09T05:08:02;99636.05;;;17.16;71.87
42003;BME280;27693;50.506;30.832;2023-07-09T05:09:05;99640.56;;;17.14;71.70
42003;BME280;27693;50.506;30.832;2023-07-09T05:10:08;99625.63;;;17.14;72.17
42003;BME280;27693;50.506;30.832;2023-07-09T05:11:11;99641.30;;;17.16;71.91
42003;BME280;27693;50.506;30.832;2023-07-09T05:12:13;99635.92;;;17.17;72.29
42003;BME280;27693;50.506;30.832;2023-07-09T05:13:16;99633.66;;;17.24;72.90
42003;BME280;27693;50.506;30.832;2023-07-09T05:14:19;99638.23;;;17.33;72.60
42003;BME280;27693;50.506;30.832;2023-07-09T05:15:23;99631.07;;;17.35;72.06
42003;BME280;27693;50.506;30.832;2023-07-09T05:16:26;99632.75;;;17.36;71.19
42003;BME280;27693;50.506;30.832;2023-07-09T05:17:29;99638.96;;;17.35;71.00
42003;BME280;27693;50.506;30.832;2023-07-09T05:18:31;99639.91;;;17.34;71.41
42003;BME280;27693;50.506;30.832;2023-07-09T05:19:36;99638.62;;;17.40;71.63
42003;BME280;27693;50.506;30.832;2023-07-09T05:20:39;99628.45;;;17.47;71.37
42003;BME280;27693;50.506;30.832;2023-07-09T05:21:43;99628.45;;;17.47;71.37
42003;BME280;27693;50.506;30.832;2023-07-09T05:22:45;99628.45;;;17.47;71.11
42003;BME280;27693;50.506;30.832;2023-07-09T05:23:48;99627.16;;;17.52;70.46
42003;BME280;27693;50.506;30.832;2023-07-09T05:24:51;99634.19;;;17.52;70.48
42003;BME280;27693;50.506;30.832;2023-07-09T05:25:59;99635.14;;;17.51;70.62
42003;BME280;27693;50.506;30.832;2023-07-09T05:27:03;99631.56;;;17.52;70.24
42003;BME280;27693;50.506;30.832;2023-07-09T05:28:06;99638.50;;;17.53;70.26
42003;BME280;27693;50.506;30.832;2023-07-09T05:29:08;99636.13;;;17.61;69.52
42003;BME280;27693;50.506;30.832;2023-07-09T05:30:12;99640.66;;;17.59;69.74
42003;BME280;27693;50.506;30.832;2023-07-09T05:31:14;99640.66;;;17.59;69.74
42003;BME280;27693;50.506;30.832;2023-07-09T05:32:18;99636.61;;;17.66;71.16
42003;BME280;27693;50.506;30.832;2023-07-09T05:33:21;99630.39;;;17.67;70.02
42003;BME280;27693;50.506;30.832;2023-07-09T05:34:23;99631.59;;;17.75;70.30
42003;BME280;27693;50.506;30.832;2023-07-09T05:35:27;99631.59;;;17.75;70.30
42003;BME280;27693;50.506;30.832;2023-07-09T05:36:30;99622.88;;;17.76;69.59
42003;BME280;27693;50.506;30.832;2023-07-09T05:37:33;99622.88;;;17.74;69.44